Tiempo atmosférico en la estación meteorológica de Villardeciervos, Zamora (850 m.)



Fecha
DESCASC
Temp. máxima en grados centígrados (hora)
DESCASC
Temp. mínima en grados centígrados (hora)
DESCASC
Temp. media en grados centígrados
DESCASC
Racha de viento máxima en m/sg (hora)
DESCASC
Velocidad máxima media en intervalos de 10 minutos(hora)
DESCASC
Precipitaciones diarias en mm
DESCASC
Precipitaciones de 00:00 a 06:00 en mm
DESCASC
Precipitaciones de 06:00 a 12:00 en mm
DESCASC
Precipitaciones de 12:00 a 18:00 en mm
DESCASC
Precipitaciones de 18:00 a 24:00 en mm
DESCASC
20-09-2020 20 (17:40) 13.6 (09:10) 16.8 8.33 (13:20) 4.17 (14:10) 13.4 2.8 7.2 3.2 0.2
19-09-2020 19.7 (18:00) 11.2 (00:10) 15.5 12.5 (16:20) 5.83 (16:00) 5.8 0 5.6 0 0.2
17-09-2020 26.2 (16:30) 14.8 (00:00) 20.5 15 (18:30) 6.11 (18:30) 4 0 0 0 4
16-09-2020 26.7 (17:20) 6.2 (08:10) 16.5 7.22 (15:20) 3.61 (16:10) 0 0 0 0 0
15-09-2020 26.3 (16:50) 9.4 (00:00) 17.8 12.22 (12:40) 4.72 (16:20) 0 0 0 0 0
14-09-2020 28.1 (16:50) 10.9 (00:00) 19.5 10.56 (18:50) 5.83 (17:20) 0 0 0 0 0
13-09-2020 32.7 (18:00) 7.9 (00:00) 20.3 8.06 (16:40) 3.61 (18:00) 0 0 0 0 0
12-09-2020 31.5 (16:50) 8.1 (08:00) 19.8 6.94 (17:30) 3.06 (15:40) 0 0 0 0 0
11-09-2020 31.1 (17:50) 7.5 (00:00) 19.3 5.83 (16:10) 2.78 (11:50) 0 0 0 0 0
10-09-2020 30.7 (18:10) 6.6 (00:00) 18.7 7.78 (00:50) 2.78 (17:20) 0 0 0 0 0
09-09-2020 29.9 (17:10) 4.7 (07:30) 17.3 6.67 (16:30) 2.5 (17:30) 0 0 0 0 0
08-09-2020 25.2 (18:00) 5.8 (00:00) 15.5 9.72 (11:10) 4.72 (11:30) 0 0 0 0 0
07-09-2020 24.1 (17:40) 5.1 (07:50) 14.6 9.72 (11:20) 4.72 (11:20) 0 0 0 0 0
06-09-2020 29 (17:50) 10.8 (00:00) 19.9 8.89 (22:10) 4.17 (22:00) 0 0 0 0 0
05-09-2020 31.8 (16:20) 8.8 (00:00) 20.3 8.61 (22:30) 3.33 (22:40) 0 0 0 0 0
04-09-2020 32.3 (17:50) 7.4 (00:00) 19.8 8.06 (15:30) 3.89 (18:30) 0 0 0 0 0
03-09-2020 31 (17:30) 5.8 (00:00) 18.4 5.83 (13:50) 2.78 (15:40) 0 0 0 0 0
02-09-2020 28.2 (17:40) 5.9 (00:00) 17.1 7.5 (10:50) 3.33 (10:50) 0 0 0 0 0
01-09-2020 28 (18:30) 9.4 (00:00) 18.7 5.83 (15:10) 2.5 (15:00) 0 0 0 0 0
31-08-2020 24.6 (18:10) 1.6 (00:00) 13.1 10.28 (15:30) 2.78 (16:50) 0 0 0 0 0
30-08-2020 21.8 (16:10) 2.2 (00:00) 12 7.78 (12:30) 3.89 (12:50) 0 0 0 0 0
29-08-2020 21.6 (16:00) 4.6 (00:00) 13.1 11.94 (17:30) 5.83 (12:40) 0 0 0 0 0
28-08-2020 25.9 (14:10) 11.3 (00:00) 18.6 11.67 (19:00) 5.83 (17:40) 0 0 0 0 0
27-08-2020 32.2 (17:20) 11.7 (00:00) 22 8.61 (18:40) 5.28 (19:00) 0 0 0 0 0
26-08-2020 32.2 (17:30) 10.4 (00:00) 21.3 8.06 (19:00) 4.17 (19:00) 0 0 0 0 0
25-08-2020 31.9 (17:10) 9 (00:00) 20.4 8.89 (15:30) 4.44 (18:50) 0 0 0 0 0
24-08-2020 29.5 (18:40) 9.3 (08:00) 19.4 6.11 (12:20) 2.78 (10:30) 0 0 0 0 0
23-08-2020 28.9 (18:10) 7.2 (00:00) 18 5.28 (11:00) 2.5 (13:30) 0 0 0 0 0

Gráficas

Temp. máximas Temp. mínimas Temp. medias Precipitaciones Rachas de viento máximas Velocidades máximas media en intervalos de 10 minutos

Datos horarios

Fecha y hora oficial Temperatura (ºC) Velocidad del viento (km/h) Dirección del viento Racha (km/h) Dirección de racha Precipitación (mm) Presión (hPa) Tendencia (hPa) Humedad (%)
2020-09-21 23:00:00 11 4 Sur 6 Sudoeste 0 921.7 0.5 80
2020-09-21 22:00:00 12.7 3 Sur 8 Sudeste 0 921.5 0.5 73
2020-09-21 21:00:00 15.7 5 Oeste 14 Sudoeste 0 921.1 0.4 63
2020-09-21 20:00:00 18.5 7 Sudoeste 24 Oeste 0 921.2 0.2 47
2020-09-21 19:00:00 20.4 12 Sudoeste 28 Sudoeste 0 921 -0.2 42
2020-09-21 18:00:00 21.4 13 Oeste 34 Sudoeste 0 920.7 -1.1 41
2020-09-21 17:00:00 21.7 14 Sudoeste 26 Oeste 0 921 -1.3 42
2020-09-21 16:00:00 20.6 4 Sur 22 Oeste 0 921.2 -1.4 43
2020-09-21 15:00:00 21.2 10 Sudoeste 23 Sudoeste 0 921.8 -0.9 45
2020-09-21 14:00:00 20.6 9 Sur 21 Sudoeste 0 922.3 -0.2 49
2020-09-21 13:00:00 19.5 7 Oeste 18 Oeste 0 922.6 0.3 59
2020-09-21 12:00:00 16.7 3 Este 9 Nordeste 0 922.7 0.5 72
2020-09-21 11:00:00 15.5 3 Norte 6 Nordeste 0 922.5 -- 85
2020-09-21 10:00:00 13.5 0 Calma 18 Noroeste 0 922.3 -- 91
2020-09-21 09:00:00 12.5 2 Sur 5 Sudeste 0 922.2 -- 92
2020-09-21 08:00:00 12 4 Sudeste 5 Sudeste 0 922 -- 92
2020-09-21 07:00:00 11.9 4 Sur 6 Sudeste 0 921.6 -- 92
2020-09-21 06:00:00 11.6 2 Nordeste 5 Sudeste 0 921.6 -- 92
2020-09-21 05:00:00 10.9 4 Sudeste 7 Sudeste 0 921.5 -- 92
2020-09-21 04:00:00 11 4 Sur 7 Sudeste 0 921.9 -- 90
2020-09-21 03:00:00 12.5 4 Oeste 11 Sur 0 922.1 -- 90
2020-09-21 02:00:00 12.6 5 Sur 10 Sur 0 922.5 -- 90
2020-09-21 01:00:00 13.4 0 Calma 8 Sudeste 0 922.4 -- 87
2020-09-21 00:00:00 13.7 3 Sudeste 9 Sur 0 922.4 -- 86
2020-09-20 23:00:00 13.8 6 Sur 13 Sudeste 0 922.3 -- 85
2020-09-20 22:00:00 14.2 5 Este 24 Sudoeste 0 922.1 -- 85
2020-09-20 21:00:00 15 13 Sudoeste 23 Sudoeste 0 921.4 -- 82
2020-09-20 20:00:00 16.3 9 Sudoeste 25 Oeste 0.2 921.2 -- 81
2020-09-20 19:00:00 18 12 Sudoeste 23 Sudoeste 0 920.7 -- 75
2020-09-20 18:00:00 18.9 8 Sudoeste 21 Sudoeste 0 920.7 -- 69
2020-09-20 17:00:00 17.8 11 Oeste 29 Sudoeste 0 920.7 -- 76
2020-09-20 16:00:00 16 3 Sudoeste 13 Oeste 0.8 920.6 -- 80
2020-09-20 15:00:00 16.9 6 Noroeste 29 Sudoeste 0.4 920.5 -- 80
2020-09-20 14:00:00 18.2 11 Oeste 30 Sudoeste 0 920.5 -- 76
2020-09-20 13:00:00 16.3 13 Sudoeste 24 Sudoeste 2 920.7 -- 84
2020-09-20 12:00:00 15.8 8 Sudoeste 20 Sur 1 920.7 -- 87
2020-09-20 11:00:00 14 2 Noroeste 10 Nordeste 1.6 920.6 -- 92
2020-09-20 10:00:00 13.7 5 Este 12 Nordeste 0.4 920.3 -- 92
2020-09-20 09:00:00 13.7 3 Nordeste 8 Este 3.4 920.1 -- 92
2020-09-20 08:00:00 13.8 0 Calma 7 Norte 0.4 919.7 -- 91
2020-09-20 07:00:00 13.7 3 Noroeste 7 Noroeste 0.4 919.6 -- 91
2020-09-20 06:00:00 13.8 4 Noroeste 9 Noroeste 0.8 919.6 -- 91
2020-09-20 05:00:00 13.9 2 Norte 6 Norte 1.4 919.6 -- 91
2020-09-20 04:00:00 14.1 3 Sudoeste 9 Oeste 0 920 -- 91
2020-09-20 03:00:00 13.7 5 Oeste 11 Oeste 0.4 920.2 -- 91
2020-09-20 02:00:00 13.9 5 Oeste 13 Oeste 0.2 920.3 -- 89
2020-09-20 01:00:00 14 5 Oeste 13 Oeste 0 920.5 -- 87
2020-09-20 00:00:00 14 6 Oeste 11 Oeste 0.2 920.7 -- 88
2020-09-19 23:00:00 14 4 Oeste 18 Sudoeste 0 920.6 -- 85
2020-09-19 22:00:00 14 9 Sudoeste 31 Sudoeste 0 920.1 -- 84
2020-09-19 21:00:00 14.2 19 Sudoeste 39 Sudoeste 0 919.6 -- 82
2020-09-19 20:00:00 15.4 18 Sudoeste 35 Sudoeste 0 919.3 -- 74
2020-09-19 19:00:00 17.4 20 Sudoeste 36 Sudoeste 0 918.8 -- 62
2020-09-19 18:00:00 19.7 13 Sudoeste 33 Sudoeste 0 918.3 -- 58
2020-09-19 17:00:00 18.1 18 Sudoeste 45 Sudoeste 0 918.3 -- 64
2020-09-19 16:00:00 17.7 21 Sudoeste 37 Sudoeste 0 918.3 -- 70
2020-09-19 15:00:00 16.5 14 Oeste 30 Oeste 0 918.4 -- 76
2020-09-19 14:00:00 16.3 13 Sudoeste 27 Sudoeste 0 918.5 -- 76
2020-09-19 13:00:00 16.5 16 Sudoeste 31 Sudoeste 0 918.4 -- 78
2020-09-19 12:00:00 15 12 Sudoeste 25 Sudoeste 0 918.1 -- 84
2020-09-19 11:00:00 13.8 9 Sudoeste 15 Sudoeste 0.2 917.7 -- 87
2020-09-19 10:00:00 12.7 5 Sur 8 Sudoeste 1.6 917 -- 91
2020-09-19 09:00:00 12.5 2 Oeste 8 Norte 3.4 916.4 -- 91
2020-09-19 08:00:00 12.6 4 Noroeste 13 Nordeste 0.2 915.8 -- 91
2020-09-19 07:00:00 12.5 6 Norte 15 Norte 0.2 914.6 -- 92
2020-09-19 06:00:00 12.2 3 Nordeste 8 Norte 0 914.4 -- 92
2020-09-19 05:00:00 12.1 2 Noroeste 9 Norte 0 914.5 -- 92
2020-09-19 04:00:00 12 3 Nordeste 7 Norte 0 915.1 -- 92
2020-09-19 03:00:00 11.9 2 Norte 5 Norte 0 915.2 -- 92
2020-09-19 02:00:00 11.9 3 Norte 5 Norte 0 915.3 -- 92
2020-09-19 01:00:00 11.7 2 Este 4 Sudeste 0 915.6 -- 92
2020-09-19 00:00:00 11.3 3 Este 7 Sudeste 0 915.5 -- 90
2020-09-18 23:00:00 11.8 2 Sur 5 Sudoeste 0 915.7 -- 89
2020-09-18 22:00:00 12.8 3 Sur 6 Sur 0 915.5 -- 88
2020-09-18 21:00:00 14 3 Norte 8 Norte 0 915 -- 85
2020-09-18 20:00:00 14.6 3 Nordeste 45 Sur 2 914.9 -- 83
2020-09-18 19:00:00 18.8 11 Sur 32 Sur 0.6 914.7 -- 61
2020-09-18 18:00:00 20.2 11 Sudoeste 24 Sudoeste 0 914.1 -- 53
2020-09-18 17:00:00 20.9 8 Sur 21 Sur 0.2 914 -- 51
2020-09-18 16:00:00 22 12 Sudoeste 30 Sur 0 914.5 -- 40
2020-09-18 15:00:00 20.2 9 Sur 24 Sur 0 915.2 -- 47
2020-09-18 14:00:00 19.2 10 Sudoeste 29 Sudoeste 0 915.6 -- 54
2020-09-18 13:00:00 19.6 12 Sur 32 Sur 0 915.9 -- 54
2020-09-18 12:00:00 17.5 14 Sur 28 Sur 0 916.1 -- 60
2020-09-18 11:00:00 16.8 8 Sudoeste 19 Sudoeste 0 915.8 -- 72
2020-09-18 10:00:00 14.4 6 Sudoeste 19 Sur 0 915.2 -- 83
2020-09-18 09:00:00 13.7 6 Sur 17 Sur 0 914.8 -- 88
2020-09-18 08:00:00 13.5 7 Sur 14 Sudeste 0 914.3 -- 89
2020-09-18 07:00:00 12.5 5 Sur 10 Sur 0 914.1 -- 90
2020-09-18 06:00:00 13.4 0 Calma 7 Nordeste 0 914.1 -- 91
2020-09-18 05:00:00 13.6 2 Sudeste 7 Nordeste 0 914.5 -- 90
2020-09-18 04:00:00 13.6 2 Sudeste 7 Sudeste 0 914.6 -- 90
2020-09-18 03:00:00 13.6 2 Norte 8 Noroeste 0 915.1 -- 90
2020-09-18 02:00:00 13.6 2 Este 8 Este 0 915 -- 89
2020-09-18 01:00:00 14.7 4 Sudoeste 36 Sudoeste 0.4 915.1 -- 85
2020-09-18 00:00:00 16.5 17 Sudoeste 33 Sudoeste 0.2 915.3 -- 84
2020-09-17 23:00:00 15.5 2 Sur 8 Este 0 915 -- 89
2020-09-17 22:00:00 16.2 4 Este 11 Sur 0 915.4 -- 89
2020-09-17 21:00:00 16.7 3 Este 10 Oeste 0.6 915 -- 86
2020-09-17 20:00:00 17.5 5 Noroeste 17 Oeste 0 914.9 -- 82
2020-09-17 19:00:00 18.5 5 Sudoeste 54 Sudoeste 3.2 914.7 -- 77
2020-09-17 18:00:00 24.2 8 Este 29 Este 0 914.2 -- 38
2020-09-17 17:00:00 25.7 9 Este 30 Sudeste 0 915.2 -- 34
2020-09-17 16:00:00 25.4 9 Este 24 Este 0 915.9 -- 39
2020-09-17 15:00:00 25.2 8 Este 19 Nordeste 0 916.6 -- 42
2020-09-17 14:00:00 22.6 5 Este 19 Norte 0 917.4 -- 51
2020-09-17 13:00:00 23.1 6 Nordeste 18 Nordeste 0 917.9 -- 51
2020-09-17 12:00:00 20.1 6 Nordeste 18 Este 0 918.5 -- 64
2020-09-17 11:00:00 17.7 7 Nordeste 18 Norte 0 918.6 -- 73
2020-09-17 10:00:00 15.9 0 Calma 5 Noroeste 0 919 -- 76
2020-09-17 09:00:00 15.2 3 Sudeste 10 Noroeste 0 919 -- 76
2020-09-17 08:00:00 15.2 2 Este 11 Oeste 0 918.6 -- 75
2020-09-17 07:00:00 14.8 0 Calma 6 Sudeste 0 918.1 -- 75
2020-09-17 06:00:00 15.2 2 Sur 6 Sudeste 0 918.5 -- 73
2020-09-17 05:00:00 16.3 3 Norte 18 Sur 0 918.5 -- 69
2020-09-17 04:00:00 16.8 3 Sudoeste 8 Sudeste 0 919.3 -- 66
2020-09-17 03:00:00 17 0 Calma 9 Sudeste 0 919.5 -- 63
2020-09-17 02:00:00 17.8 2 Nordeste 8 Sudoeste 0 920 -- 59
2020-09-17 01:00:00 19.6 3 Norte 13 Norte 0 920.1 -- 50
2020-09-17 00:00:00 19.7 9 Sur 19 Sudoeste 0 920.6 -- 48
2020-09-16 23:00:00 17.7 4 Sur 8 Sur 0 920.5 -- 58
2020-09-16 22:00:00 18.3 4 Sur 7 Sur 0 920.5 -- 56
2020-09-16 21:00:00 20.3 3 Sudoeste 5 Nordeste 0 920.3 -- 49
2020-09-16 20:00:00 23.3 0 Calma 9 Nordeste 0 920.4 -- 38
2020-09-16 19:00:00 24.9 4 Nordeste 17 Sudeste 0 920.6 -- 32
2020-09-16 18:00:00 25.8 9 Sudeste 19 Este 0 920.8 -- 25
2020-09-16 17:00:00 26.4 10 Sudeste 24 Sudeste 0 921.2 -- 26
2020-09-16 16:00:00 26.5 8 Sudeste 26 Sudeste 0 921.8 -- 26
2020-09-16 15:00:00 26.1 9 Sur 23 Sur 0 922.5 -- 29
2020-09-16 14:00:00 25.9 10 Sudeste 26 Sudeste 0 922.9 -- 30
2020-09-16 13:00:00 24.5 5 Nordeste 18 Este 0 923.6 -- 35
2020-09-16 12:00:00 21.9 3 Norte 10 Este 0 924.2 -- 46
2020-09-16 11:00:00 17.8 0 Calma 5 Norte 0 924.4 -- 56
2020-09-16 10:00:00 13.1 0 Calma 4 Norte 0 924.4 -- 78
2020-09-16 09:00:00 7.8 2 Sur 7 Sur 0 924.2 -- 89
2020-09-16 08:00:00 6.6 2 Sudeste 7 Sur 0 924 -- 87
2020-09-16 07:00:00 7.4 5 Sur 8 Sudoeste 0 923.9 -- 90
2020-09-16 06:00:00 7.8 3 Noroeste 5 Norte 0 923.9 -- 88
2020-09-16 05:00:00 7.4 4 Noroeste 6 Norte 0 924.1 -- 86
2020-09-16 04:00:00 8 0 Calma 4 Sudeste 0 924.3 -- 85
2020-09-16 03:00:00 8.7 2 Sur 8 Este 0 924.5 -- 83
2020-09-16 02:00:00 9.9 3 Oeste 6 Sudeste 0 924.6 -- 82
2020-09-16 01:00:00 10.9 2 Noroeste 8 Sudeste 0 924.4 -- 76
2020-09-16 00:00:00 12.5 0 Calma 4 Sur 0 924.4 -- 73
2020-09-15 23:00:00 14.8 0 Calma 6 Sur 0 924.3 -- 65
2020-09-15 22:00:00 17 5 Oeste 12 Sur 0 923.8 -- 57
2020-09-15 21:00:00 18.9 4 Sur 10 Oeste 0 923.3 -- 51
2020-09-15 20:00:00 23.5 7 Sudoeste 15 Noroeste 0 923.2 -- 36
2020-09-15 19:00:00 25.4 6 Oeste 26 Sur 0 923 -- 32
2020-09-15 18:00:00 25.1 13 Sudoeste 28 Oeste 0 923.3 -- 31
2020-09-15 17:00:00 25.3 13 Sudoeste 33 Sudoeste 0 923.6 -- 33
2020-09-15 16:00:00 25.8 11 Sudoeste 36 Sudeste 0 924 -- 30
2020-09-15 15:00:00 24.5 13 Sudoeste 33 Sudoeste 0 924.3 -- 39
2020-09-15 14:00:00 24.4 14 Sudoeste 36 Sudeste 0 924.6 -- 41
2020-09-15 13:00:00 22.7 10 Sudoeste 44 Sudoeste 0 925 -- 50
2020-09-15 12:00:00 21.1 3 Norte 14 Norte 0 925.3 -- 60
2020-09-15 11:00:00 18.8 5 Nordeste 11 Norte 0 925.4 -- 69
2020-09-15 10:00:00 14.3 0 Calma 3 Norte 0 925 -- 88
2020-09-15 09:00:00 10.3 0 Calma 4 Sudoeste 0 924.9 -- 90
2020-09-15 08:00:00 9.5 2 Sur 8 Sudeste 0 924.6 -- 90
2020-09-15 07:00:00 9.5 2 Sur 5 Sur 0 924.1 -- 88
2020-09-15 06:00:00 10.5 0 Calma 7 Sudeste 0 924 -- 87
2020-09-15 05:00:00 11.4 3 Sur 7 Oeste 0 924.1 -- 88
2020-09-15 04:00:00 11.5 3 Sudoeste 6 Norte 0 924 -- 85
2020-09-15 03:00:00 11.6 3 Sur 6 Norte 0 924.1 -- 84
2020-09-15 02:00:00 12.7 4 Sudoeste 10 Sudeste 0 924 -- 84
2020-09-15 01:00:00 13.7 2 Noroeste 8 Sur 0 923.8 -- 78
2020-09-15 00:00:00 14.6 4 Sudeste 8 Este 0 923.5 -- 73
2020-09-14 23:00:00 15.9 0 Calma 12 Norte 0 923.1 -- 68
2020-09-14 22:00:00 17.6 4 Sudeste 15 Sudoeste 0 922.6 -- 61
2020-09-14 21:00:00 19.6 5 Sur 16 Oeste 0 922 -- 55
2020-09-14 20:00:00 22.1 9 Sudoeste 24 Sudoeste 0 922.2 -- 46
2020-09-14 19:00:00 25.3 15 Sudoeste 38 Sudoeste 0 922.1 -- 32
2020-09-14 18:00:00 25.7 13 Sudoeste 36 Sudoeste 0 922.1 -- 37
2020-09-14 17:00:00 27.1 17 Sudoeste 37 Sur 0 922.4 -- 32
2020-09-14 16:00:00 26.8 12 Sur 37 Sudeste 0 923 -- 34
2020-09-14 15:00:00 25.8 12 Sur 33 Sur 0 923.8 -- 37
2020-09-14 14:00:00 25.9 12 Sur 30 Sudeste 0 924.3 -- 39
2020-09-14 13:00:00 23.9 3 Nordeste 9 Norte 0 924.9 -- 40
2020-09-14 12:00:00 20 3 Nordeste 6 Norte 0 925.2 -- 53
2020-09-14 11:00:00 16.8 2 Sudeste 6 Sudeste 0 925.1 -- 68
2020-09-14 10:00:00 14.7 3 Oeste 7 Nordeste 0 924.6 -- 75
2020-09-14 09:00:00 12.5 3 Sudeste 6 Sudeste 0 924.5 -- 77
2020-09-14 08:00:00 11.1 2 Sudeste 6 Noroeste 0 924.2 -- 77
2020-09-14 07:00:00 11.5 2 Este 8 Sudoeste 0 923.6 -- 75
2020-09-14 06:00:00 11.9 3 Sur 6 Sudoeste 0 923.5 -- 74
2020-09-14 05:00:00 13 0 Calma 6 Noroeste 0 923.5 -- 68
2020-09-14 04:00:00 14.5 6 Noroeste 15 Sudoeste 0 923.8 -- 63
2020-09-14 03:00:00 13.1 0 Calma 5 Sudeste 0 923.9 -- 67
2020-09-14 02:00:00 14.7 0 Calma 3 Sudoeste 0 924.1 -- 61
2020-09-14 01:00:00 15.9 3 Sur 5 Sudeste 0 924.3 -- 55
2020-09-14 00:00:00 17.9 0 Calma 5 Sur 0 924.3 -- 51
2020-09-13 23:00:00 19.3 3 Noroeste 6 Norte 0 924.2 -- 44
2020-09-13 22:00:00 21.3 3 Sudoeste 8 Sudoeste 0 924 -- 37
2020-09-13 21:00:00 24.5 6 Sudoeste 16 Sudoeste 0 923.4 -- 30
2020-09-13 20:00:00 27.5 9 Sudoeste 25 Sur 0 923.3 -- 24
2020-09-13 19:00:00 30.3 11 Sur 24 Sur 0 923.1 -- 18
2020-09-13 18:00:00 32.1 13 Sur 24 Sur 0 923.3 -- 16
2020-09-13 17:00:00 30.5 7 Sudoeste 29 Sudoeste 0 923.8 -- 19
2020-09-13 16:00:00 31.3 10 Sur 20 Sudoeste 0 924.4 -- 17
2020-09-13 15:00:00 29.2 8 Sur 18 Sudeste 0 924.8 -- 21
2020-09-13 14:00:00 30.2 3 Norte 18 Norte 0 925.2 -- 20
2020-09-13 13:00:00 27.6 5 Este 14 Este 0 925.6 -- 22
2020-09-13 12:00:00 25.1 4 Este 17 Este 0 926 -- 26
2020-09-13 11:00:00 21.8 6 Nordeste 17 Noroeste 0 926.1 -- 29
2020-09-13 10:00:00 16.9 0 Calma 4 Norte 0 926 -- 54
2020-09-13 09:00:00 10.3 3 Sudeste 7 Sudeste 0 925.8 -- 72
2020-09-13 08:00:00 7.9 0 Calma 4 Nordeste 0 925.3 -- 77
2020-09-13 07:00:00 8.4 2 Sur 5 Nordeste 0 925.1 -- 78
2020-09-13 06:00:00 9.4 0 Calma 7 Sudoeste 0 925 -- 72
2020-09-13 05:00:00 9.8 4 Sudoeste 7 Sudoeste 0 925.2 -- 72
2020-09-13 04:00:00 10.1 5 Sudoeste 8 Sudoeste 0 925.2 -- 73
2020-09-13 03:00:00 10.3 3 Sudoeste 5 Sudoeste 0 925.3 -- 72
2020-09-13 02:00:00 10.7 3 Sur 5 Sudoeste 0 925.3 -- 71
2020-09-13 01:00:00 12.1 0 Calma 5 Oeste 0 925.2 -- 65
2020-09-13 00:00:00 13.9 3 Sudeste 7 Sur 0 924.9 -- 58
2020-09-12 23:00:00 15.2 5 Sur 8 Sur 0 924.6 -- 54
2020-09-12 22:00:00 18.7 0 Calma 5 Sudoeste 0 923.9 -- 42
2020-09-12 21:00:00 22.8 4 Sur 7 Sur 0 923.3 -- 32
2020-09-12 20:00:00 27.2 4 Sudeste 15 Este 0 923 -- 26
2020-09-12 19:00:00 29.3 4 Nordeste 18 Nordeste 0 922.9 -- 19
2020-09-12 18:00:00 30.9 9 Nordeste 25 Este 0 922.8 -- 17
2020-09-12 17:00:00 30.6 11 Este 21 Este 0 922.8 -- 17
2020-09-12 16:00:00 30.2 9 Sudeste 25 Sudeste 0 923.1 -- 18
2020-09-12 15:00:00 30 7 Este 24 Sudeste 0 923.5 -- 18
2020-09-12 14:00:00 28.5 8 Este 23 Nordeste 0 924 -- 24
2020-09-12 13:00:00 26.1 7 Este 23 Este 0 924.2 -- 30
2020-09-12 12:00:00 23.4 6 Este 18 Este 0 924.1 -- 39
2020-09-12 11:00:00 20.6 9 Nordeste 16 Este 0 924 -- 52
2020-09-12 10:00:00 16.8 0 Calma 4 Nordeste 0 923.8 -- 66
2020-09-12 09:00:00 10.7 0 Calma 7 Nordeste 0 923.4 -- 81
2020-09-12 08:00:00 8.1 2 Oeste 5 Nordeste 0 922.9 -- 84
2020-09-12 07:00:00 8.7 0 Calma 5 Este 0 922.5 -- 85
2020-09-12 06:00:00 9.4 2 Noroeste 4 Noroeste 0 922.3 -- 82
2020-09-12 05:00:00 10.2 0 Calma 5 Sur 0 922.2 -- 78
2020-09-12 04:00:00 10.7 3 Sur 4 Sur 0 922.1 -- 77
2020-09-12 03:00:00 11.4 2 Sur 7 Sudeste 0 921.9 -- 75
2020-09-12 02:00:00 13 3 Sudeste 8 Sudoeste 0 921.6 -- 69
2020-09-12 01:00:00 14 5 Sudoeste 20 Nordeste 0 921.4 -- 65
2020-09-12 00:00:00 14.3 3 Sur 5 Sudeste 0 920.9 -- 64
2020-09-11 23:00:00 16.7 3 Sudoeste 6 Noroeste 0 920.6 -- 56
2020-09-11 22:00:00 19.6 4 Noroeste 10 Sudoeste 0 920.1 -- 50
2020-09-11 21:00:00 22 6 Sudoeste 10 Sudoeste 0 919.5 -- 38
2020-09-11 20:00:00 24.3 4 Sur 10 Sur 0 919.3 -- 33
2020-09-11 19:00:00 28 3 Sur 12 Sur 0 919.3 -- 26
2020-09-11 18:00:00 31.1 7 Norte 14 Norte 0 919.4 -- 19
2020-09-11 17:00:00 30.2 6 Oeste 21 Norte 0 919.9 -- 20
2020-09-11 16:00:00 29.9 7 Norte 19 Nordeste 0 920.3 -- 19
2020-09-11 15:00:00 28.8 8 Este 15 Este 0 920.6 -- 23
2020-09-11 14:00:00 27.6 4 Nordeste 15 Sudeste 0 921.3 -- 27
2020-09-11 13:00:00 25.1 7 Este 19 Este 0 921.7 -- 32
2020-09-11 12:00:00 22.3 6 Este 18 Sudeste 0 922 -- 43
2020-09-11 11:00:00 19.9 6 Nordeste 16 Este 0 922.3 -- 52
2020-09-11 10:00:00 16.3 0 Calma 4 Este 0 922.2 -- 64
2020-09-11 09:00:00 9.9 3 Sudeste 5 Sudeste 0 922.2 -- 83
2020-09-11 08:00:00 7.5 2 Sur 5 Sur 0 922 -- 85
2020-09-11 07:00:00 8.1 3 Sudeste 5 Sudeste 0 921.9 -- 84
2020-09-11 06:00:00 9 3 Sudoeste 5 Sudoeste 0 921.8 -- 82
2020-09-11 05:00:00 9.3 3 Sudoeste 6 Sudoeste 0 922.1 -- 81
2020-09-11 04:00:00 10.2 3 Sudoeste 5 Sudoeste 0 922.2 -- 76
2020-09-11 03:00:00 10.9 2 Sur 4 Sur 0 922.3 -- 71
2020-09-11 02:00:00 12.3 5 Sudeste 6 Sur 0 922.5 -- 66
2020-09-11 01:00:00 14.2 6 Sudeste 20 Nordeste 0 922.6 -- 59
2020-09-11 00:00:00 13.8 4 Sudeste 6 Sudeste 0 922.2 -- 61
2020-09-10 23:00:00 16.8 0 Calma 8 Noroeste 0 922 -- 51
2020-09-10 22:00:00 19.7 3 Sur 8 Sur 0 921.7 -- 41
2020-09-10 21:00:00 22.6 3 Sudoeste 12 Sudeste 0 921.3 -- 33
2020-09-10 20:00:00 27.6 3 Sur 12 Sudeste 0 921.4 -- 27
2020-09-10 19:00:00 29.4 4 Sudeste 15 Nordeste 0 921.5 -- 18
2020-09-10 18:00:00 30.5 8 Norte 20 Noroeste 0 921.9 -- 18
2020-09-10 17:00:00 30.4 5 Norte 17 Norte 0 922.5 -- 15
2020-09-10 16:00:00 29.6 4 Oeste 17 Noroeste 0 923.2 -- 19
2020-09-10 15:00:00 28.4 6 Este 14 Este 0 923.9 -- 23
2020-09-10 14:00:00 27.1 5 Norte 13 Este 0 924.7 -- 28
2020-09-10 13:00:00 24.5 5 Nordeste 18 Este 0 925.5 -- 34
2020-09-10 12:00:00 22.9 4 Nordeste 17 Este 0 926.1 -- 39
2020-09-10 11:00:00 20.3 5 Nordeste 10 Nordeste 0 926.2 -- 46
2020-09-10 10:00:00 16.1 0 Calma 4 Norte 0 926.1 -- 62
2020-09-10 09:00:00 9.4 0 Calma 5 Sudeste 0 926 -- 81
2020-09-10 08:00:00 7 2 Sur 6 Sur 0 925.6 -- 86
2020-09-10 07:00:00 6.6 5 Sur 9 Sudeste 0 925.4 -- 84
2020-09-10 06:00:00 7.9 4 Sur 6 Sudoeste 0 925.4 -- 83
2020-09-10 05:00:00 7.4 0 Calma 6 Sudeste 0 926 -- 79
2020-09-10 04:00:00 8.3 0 Calma 6 Sudoeste 0 926.1 -- 74
2020-09-10 03:00:00 8.8 4 Sur 6 Sur 0 926.3 -- 70
2020-09-10 02:00:00 10.4 2 Sudeste 6 Sudeste 0 926.4 -- 65
2020-09-10 01:00:00 11.4 3 Oeste 28 Este 0 926.3 -- 60
2020-09-10 00:00:00 12.2 3 Sudeste 5 Sudoeste 0 925.6 -- 56
2020-09-09 23:00:00 14.4 3 Sudeste 8 Norte 0 925.4 -- 51
2020-09-09 22:00:00 18.4 5 Sudoeste 12 Sur 0 924.9 -- 35
2020-09-09 21:00:00 21.5 6 Sudoeste 9 Sudoeste 0 924.3 -- 31
2020-09-09 20:00:00 27.8 3 Sur 10 Sudoeste 0 924 -- 21
2020-09-09 19:00:00 29.8 4 Oeste 12 Sudoeste 0 924.1 -- 13
2020-09-09 18:00:00 29.6 3 Este 16 Oeste 0 924.2 -- 14
2020-09-09 17:00:00 29.7 7 Noroeste 24 Noroeste 0 924.4 -- 16
2020-09-09 16:00:00 29.4 6 Noroeste 18 Oeste 0 924.8 -- 16
2020-09-09 15:00:00 27.7 7 Oeste 18 Oeste 0 925.3 -- 19
2020-09-09 14:00:00 27 5 Nordeste 19 Sudeste 0 925.7 -- 20
2020-09-09 13:00:00 24.5 7 Este 21 Este 0 926.3 -- 26
2020-09-09 12:00:00 22.1 8 Nordeste 19 Nordeste 0 926.7 -- 32
2020-09-09 11:00:00 19.2 5 Nordeste 12 Este 0 926.9 -- 41
2020-09-09 10:00:00 15 4 Sudeste 12 Nordeste 0 926.5 -- 54
2020-09-09 09:00:00 7.9 3 Sudeste 6 Este 0 926.4 -- 78
2020-09-09 08:00:00 4.9 3 Noroeste 5 Sudoeste 0 926 -- 84
2020-09-09 07:00:00 4.9 3 Noroeste 4 Norte 0 925.8 -- 83
2020-09-09 06:00:00 5.6 0 Calma 8 Norte 0 925.5 -- 82
2020-09-09 05:00:00 6.4 3 Sudoeste 8 Sudoeste 0 925.5 -- 78
2020-09-09 04:00:00 6.3 2 Sur 5 Sur 0 925.7 -- 79
2020-09-09 03:00:00 7.7 3 Sur 6 Sur 0 925.6 -- 75
2020-09-09 02:00:00 7.6 3 Sur 8 Sudeste 0 925.8 -- 74
2020-09-09 01:00:00 8.9 2 Nordeste 6 Sudeste 0 925.9 -- 70
2020-09-09 00:00:00 10.6 3 Sudoeste 7 Sudoeste 0 925.9 -- 64
2020-09-08 23:00:00 12.6 3 Sur 7 Sudoeste 0 925.8 -- 58
2020-09-08 22:00:00 14.9 5 Sudoeste 8 Sudoeste 0 925.5 -- 50
2020-09-08 21:00:00 19.9 0 Calma 10 Nordeste 0 924.9 -- 36
2020-09-08 20:00:00 24 5 Nordeste 19 Este 0 924.7 -- 25
2020-09-08 19:00:00 24.8 8 Este 23 Este 0 924.7 -- 23
2020-09-08 18:00:00 25.2 10 Este 26 Este 0 924.9 -- 22
2020-09-08 17:00:00 24.4 14 Este 30 Nordeste 0 925.3 -- 22
2020-09-08 16:00:00 23.8 13 Nordeste 32 Nordeste 0 925.7 -- 22
2020-09-08 15:00:00 22.8 13 Nordeste 34 Nordeste 0 926.1 -- 27
2020-09-08 14:00:00 21.5 12 Nordeste 34 Nordeste 0 926.3 -- 33
2020-09-08 13:00:00 19.3 13 Nordeste 35 Nordeste 0 927.1 -- 41
2020-09-08 12:00:00 17.6 14 Nordeste 35 Nordeste 0 927.5 -- 46
2020-09-08 11:00:00 15.6 13 Nordeste 31 Nordeste 0 927.9 -- 53
2020-09-08 10:00:00 13.3 11 Nordeste 28 Nordeste 0 928 -- 62
2020-09-08 09:00:00 8.9 4 Nordeste 12 Nordeste 0 928 -- 75
2020-09-08 08:00:00 6 4 Este 14 Nordeste 0 927.5 -- 80
2020-09-08 07:00:00 5.8 5 Nordeste 9 Nordeste 0 927.3 -- 81
2020-09-08 06:00:00 6.2 4 Nordeste 11 Nordeste 0 927.4 -- 79
2020-09-08 05:00:00 7 3 Nordeste 7 Sur 0 927.4 -- 75
2020-09-08 04:00:00 7.5 2 Este 10 Este 0 927.4 -- 76
2020-09-08 03:00:00 8.7 3 Nordeste 9 Nordeste 0 927.5 -- 73
2020-09-08 02:00:00 10.1 3 Nordeste 9 Nordeste 0 927.7 -- 68
2020-09-08 01:00:00 11.7 5 Nordeste 13 Nordeste 0 927.7 -- 67
2020-09-08 00:00:00 13.1 5 Nordeste 21 Este 0 927.3 -- 60
2020-09-07 23:00:00 14.6 6 Nordeste 18 Este 0 927 -- 53
2020-09-07 22:00:00 16 6 Este 13 Este 0 926.2 -- 47
2020-09-07 21:00:00 18.3 7 Este 22 Este 0 925.5 -- 40
2020-09-07 20:00:00 21.8 9 Este 32 Este 0 925.2 -- 31
2020-09-07 19:00:00 23 13 Este 29 Nordeste 0 925.1 -- 28
2020-09-07 18:00:00 23.6 12 Nordeste 26 Nordeste 0 925.1 -- 26
2020-09-07 17:00:00 23.4 12 Este 35 Este 0 925.2 -- 29
2020-09-07 16:00:00 22.8 11 Nordeste 34 Este 0 925.5 -- 29
2020-09-07 15:00:00 22.1 12 Nordeste 29 Este 0 925.7 -- 31
2020-09-07 14:00:00 20.4 14 Este 30 Nordeste 0 926.2 -- 35
2020-09-07 13:00:00 19.1 13 Este 30 Este 0 926.5 -- 43
2020-09-07 12:00:00 17.2 13 Este 35 Nordeste 0 926.7 -- 49
2020-09-07 11:00:00 14.7 17 Este 31 Este 0 926.7 -- 60
2020-09-07 10:00:00 12 6 Nordeste 14 Norte 0 926.2 -- 75
2020-09-07 09:00:00 7.7 0 Calma 4 Este 0 925.9 -- 89
2020-09-07 08:00:00 5.2 2 Sur 5 Sur 0 925.4 -- 88
2020-09-07 07:00:00 5.4 0 Calma 4 Sur 0 925 -- 85
2020-09-07 06:00:00 6.1 3 Sudeste 5 Sudeste 0 925 -- 84
2020-09-07 05:00:00 8 2 Sur 4 Sudoeste 0 925 -- 83
2020-09-07 04:00:00 9.4 0 Calma 6 Norte 0 925.1 -- 77
2020-09-07 03:00:00 10.4 4 Norte 10 Nordeste 0 925.4 -- 75
2020-09-07 02:00:00 11.6 4 Nordeste 15 Nordeste 0 925.3 -- 69
2020-09-07 01:00:00 13 4 Este 17 Este 0 925 -- 63
2020-09-07 00:00:00 14.3 4 Nordeste 21 Este 0 924.6 -- 60
2020-09-06 23:00:00 16.4 10 Este 32 Nordeste 0 924.3 -- 51
2020-09-06 22:00:00 19.6 15 Este 31 Este 0 922.9 -- 41
2020-09-06 21:00:00 23 5 Este 15 Este 0 921.5 -- 41
2020-09-06 20:00:00 26.2 9 Este 19 Este 0 921.2 -- 33
2020-09-06 19:00:00 28.4 6 Este 17 Este 0 921.1 -- 30
2020-09-06 18:00:00 28.4 7 Sur 16 Nordeste 0 921.4 -- 29
2020-09-06 17:00:00 28.3 4 Nordeste 16 Este 0 921.9 -- 29
2020-09-06 16:00:00 27.4 6 Este 19 Este 0 922.2 -- 32
2020-09-06 15:00:00 26.1 7 Este 23 Este 0 922.8 -- 34
2020-09-06 14:00:00 24.6 6 Nordeste 23 Nordeste 0 923.3 -- 39
2020-09-06 13:00:00 22.1 9 Nordeste 22 Este 0 923.7 -- 47
2020-09-06 12:00:00 19.9 9 Este 22 Este 0 924 -- 55
2020-09-06 11:00:00 17.6 11 Este 21 Este 0 924.4 -- 63
2020-09-06 10:00:00 15.5 5 Nordeste 11 Nordeste 0 924.2 -- 73
2020-09-06 09:00:00 12.9 2 Este 5 Nordeste 0 924.1 -- 86
2020-09-06 08:00:00 11 0 Calma 7 Nordeste 0 924 -- 90
2020-09-06 07:00:00 10.9 2 Sudeste 6 Este 0 923.9 -- 89
2020-09-06 06:00:00 11.2 2 Sudeste 4 Norte 0 924.1 -- 86
2020-09-06 05:00:00 12.3 2 Noroeste 6 Noroeste 0 924.3 -- 85
2020-09-06 04:00:00 13.1 3 Norte 15 Nordeste 0 924.7 -- 82
2020-09-06 03:00:00 14.2 5 Nordeste 19 Nordeste 0 924.9 -- 78
2020-09-06 02:00:00 15.3 9 Este 21 Este 0 925 -- 74
2020-09-06 01:00:00 16.4 9 Este 21 Nordeste 0 924.7 -- 69
2020-09-06 00:00:00 18.1 9 Este 25 Este 0 924.4 -- 62
2020-09-05 23:00:00 20.4 10 Este 31 Nordeste 0 924 -- 54
2020-09-05 22:00:00 22.4 9 Este 18 Nordeste 0 922.6 -- 45
2020-09-05 21:00:00 24.6 3 Sudoeste 7 Sudoeste 0 921.7 -- 35
2020-09-05 20:00:00 28.6 4 Sur 16 Sudeste 0 921.8 -- 27
2020-09-05 19:00:00 31.1 5 Sudeste 12 Sudeste 0 922 -- 17
2020-09-05 18:00:00 31.1 4 Sudeste 20 Sur 0 922.3 -- 17
2020-09-05 17:00:00 31.4 9 Sur 23 Sur 0 922.7 -- 19
2020-09-05 16:00:00 31.6 5 Nordeste 19 Norte 0 923.6 -- 19
2020-09-05 15:00:00 30 6 Este 21 Este 0 924.4 -- 25
2020-09-05 14:00:00 28.2 8 Este 21 Nordeste 0 924.9 -- 28
2020-09-05 13:00:00 26.7 6 Nordeste 19 Este 0 925.2 -- 31
2020-09-05 12:00:00 24.7 7 Este 20 Este 0 925.6 -- 36
2020-09-05 11:00:00 22.5 7 Nordeste 16 Este 0 925.6 -- 41
2020-09-05 10:00:00 17.8 0 Calma 5 Sudeste 0 925.6 -- 60
2020-09-05 09:00:00 12 0 Calma 7 Oeste 0 925.3 -- 75
2020-09-05 08:00:00 9.8 4 Sur 21 Sudeste 0 924.9 -- 82
2020-09-05 07:00:00 9.4 2 Sudeste 4 Sudeste 0 924.8 -- 78
2020-09-05 06:00:00 10.5 2 Noroeste 5 Sudeste 0 924.7 -- 75
2020-09-05 05:00:00 11.7 0 Calma 8 Sudeste 0 925 -- 72
2020-09-05 04:00:00 12.4 0 Calma 6 Este 0 925.4 -- 69
2020-09-05 03:00:00 13.2 5 Sudoeste 9 Este 0 925.4 -- 65
2020-09-05 02:00:00 16.8 4 Este 13 Nordeste 0 925.5 -- 51
2020-09-05 01:00:00 17.8 5 Sur 11 Sur 0 925.3 -- 47
2020-09-05 00:00:00 18 8 Sur 10 Sur 0 925.2 -- 47
2020-09-04 23:00:00 17.7 5 Sur 12 Noroeste 0 925.4 -- 46
2020-09-04 22:00:00 20.4 7 Sudoeste 21 Noroeste 0 924.8 -- 38
2020-09-04 21:00:00 23.2 5 Sur 12 Oeste 0 924.5 -- 31
2020-09-04 20:00:00 29.9 6 Oeste 20 Sudoeste 0 924.5 -- 17
2020-09-04 19:00:00 31.1 9 Oeste 25 Sudoeste 0 924.6 -- 16
2020-09-04 18:00:00 31.8 10 Sur 23 Sudoeste 0 924.6 -- 14
2020-09-04 17:00:00 31.5 13 Sudoeste 28 Sudoeste 0 924.9 -- 14
2020-09-04 16:00:00 31.4 12 Sur 29 Sur 0 925.4 -- 14
2020-09-04 15:00:00 30.6 14 Sudoeste 27 Sudoeste 0 926 -- 16
2020-09-04 14:00:00 30 13 Sudoeste 25 Sur 0 926.5 -- 17
2020-09-04 13:00:00 28.2 4 Nordeste 12 Noroeste 0 927.1 -- 26
2020-09-04 12:00:00 25 4 Nordeste 12 Norte 0 927.4 -- 30
2020-09-04 11:00:00 22.1 4 Nordeste 9 Norte 0 927.5 -- 37
2020-09-04 10:00:00 16.3 0 Calma 5 Norte 0 927.3 -- 60
2020-09-04 09:00:00 10.1 2 Sudeste 5 Sur 0 927 -- 76
2020-09-04 08:00:00 7.6 0 Calma 3 Norte 0 926.6 -- 82
2020-09-04 07:00:00 7.9 0 Calma 3 Sudeste 0 926.4 -- 80
2020-09-04 06:00:00 8.4 0 Calma 6 Este 0 926.1 -- 77
2020-09-04 05:00:00 8.6 2 Sur 4 Sur 0 926.3 -- 75
2020-09-04 04:00:00 9.2 0 Calma 6 Sur 0 926.4 -- 74
2020-09-04 03:00:00 10.1 2 Oeste 5 Sudeste 0 926.3 -- 70
2020-09-04 02:00:00 11.6 0 Calma 6 Sur 0 926.3 -- 64
2020-09-04 01:00:00 12.2 2 Sur 5 Sudeste 0 926.3 -- 60
2020-09-04 00:00:00 13.9 4 Sudeste 7 Sudeste 0 926.2 -- 58
2020-09-03 23:00:00 17.3 0 Calma 8 Sur 0 925.8 -- 49
2020-09-03 22:00:00 19.9 5 Sur 10 Sudoeste 0 925.3 -- 37
2020-09-03 21:00:00 23 3 Sur 6 Sur 0 924.8 -- 34
2020-09-03 20:00:00 29.8 3 Sudoeste 10 Oeste 0 924.5 -- 23
2020-09-03 19:00:00 30.8 4 Sudoeste 14 Sur 0 924.4 -- 16
2020-09-03 18:00:00 31 5 Sudoeste 16 Sur 0 924.5 -- 18
2020-09-03 17:00:00 30.4 7 Sudeste 21 Sudoeste 0 924.7 -- 19
2020-09-03 16:00:00 30.1 4 Norte 21 Sudeste 0 925 -- 19
2020-09-03 15:00:00 29 6 Sur 21 Sudeste 0 925.5 -- 22
2020-09-03 14:00:00 27.5 6 Nordeste 21 Sudeste 0 925.8 -- 27
2020-09-03 13:00:00 26.1 4 Sudoeste 11 Noroeste 0 926.1 -- 31
2020-09-03 12:00:00 23.1 2 Norte 9 Nordeste 0 926.1 -- 41
2020-09-03 11:00:00 19.7 2 Sudoeste 5 Norte 0 926.1 -- 51
2020-09-03 10:00:00 15.7 0 Calma 5 Norte 0 926 -- 64
2020-09-03 09:00:00 9.6 2 Sudeste 5 Sudeste 0 925.7 -- 83
2020-09-03 08:00:00 5.8 3 Sur 6 Sur 0 925.3 -- 87
2020-09-03 07:00:00 6.8 2 Sudeste 5 Sudeste 0 924.9 -- 85
2020-09-03 06:00:00 7.6 0 Calma 6 Sur 0 925 -- 83
2020-09-03 05:00:00 7.8 5 Sur 8 Sudeste 0 924.9 -- 84
2020-09-03 04:00:00 8 2 Sur 5 Sur 0 924.5 -- 80
2020-09-03 03:00:00 9.4 2 Este 11 Este 0 924.4 -- 77
2020-09-03 02:00:00 10.6 0 Calma 4 Sur 0 924.2 -- 72
2020-09-03 01:00:00 11.2 4 Sur 5 Sur 0 924 -- 70
2020-09-03 00:00:00 12.7 2 Sur 6 Sudoeste 0 923.7 -- 64
2020-09-02 23:00:00 14.8 2 Sudeste 6 Noroeste 0 923.5 -- 59
2020-09-02 22:00:00 17.4 5 Sudoeste 8 Sudoeste 0 922.8 -- 50
2020-09-02 21:00:00 21.4 3 Sur 6 Sur 0 922.2 -- 39
2020-09-02 20:00:00 27.5 3 Sur 6 Noroeste 0 921.8 -- 26
2020-09-02 19:00:00 27.4 3 Sudoeste 10 Sur 0 921.6 -- 22
2020-09-02 18:00:00 28.1 4 Noroeste 17 Noroeste 0 921.5 -- 21
2020-09-02 17:00:00 27.2 5 Nordeste 14 Norte 0 921.6 -- 23
2020-09-02 16:00:00 25.9 3 Este 12 Nordeste 0 922 -- 27
2020-09-02 15:00:00 25 5 Sudeste 22 Norte 0 922.4 -- 31
2020-09-02 14:00:00 23.4 6 Este 22 Este 0 922.5 -- 34
2020-09-02 13:00:00 21 11 Este 23 Este 0 922.8 -- 42
2020-09-02 12:00:00 19.2 9 Este 26 Este 0 923.1 -- 51
2020-09-02 11:00:00 16.9 10 Nordeste 27 Este 0 922.9 -- 60
2020-09-02 10:00:00 14.2 4 Nordeste 9 Nordeste 0 922.8 -- 70
2020-09-02 09:00:00 8.7 2 Sudeste 15 Sudeste 0 922.5 -- 84
2020-09-02 08:00:00 6 3 Sur 4 Sur 0 922.3 -- 87
2020-09-02 07:00:00 7.2 3 Sur 4 Sur 0 921.8 -- 87
2020-09-02 06:00:00 8.1 2 Noroeste 5 Noroeste 0 921.5 -- 86
2020-09-02 05:00:00 9.5 2 Noroeste 7 Noroeste 0 921.2 -- 86
2020-09-02 04:00:00 9.6 0 Calma 5 Sur 0 920.9 -- 84
2020-09-02 03:00:00 11.4 3 Noroeste 5 Noroeste 0 920.9 -- 78
2020-09-02 02:00:00 12.5 0 Calma 4 Sur 0 920.8 -- 74
2020-09-02 01:00:00 13.7 3 Norte 12 Nordeste 0 920.5 -- 70
2020-09-02 00:00:00 15.4 4 Nordeste 15 Nordeste 0 920.3 -- 64
2020-09-01 23:00:00 16 5 Este 19 Nordeste 0 919.5 -- 52
2020-09-01 22:00:00 17.7 2 Norte 8 Sudeste 0 918.2 -- 44
2020-09-01 21:00:00 20.6 2 Sudeste 8 Este 0 917.6 -- 35
2020-09-01 20:00:00 24.3 3 Sudeste 11 Este 0 917.2 -- 30
2020-09-01 19:00:00 27.2 3 Sur 15 Este 0 916.9 -- 19
2020-09-01 18:00:00 27.7 3 Sudoeste 21 Norte 0 917 -- 21
2020-09-01 17:00:00 27.1 9 Oeste 19 Noroeste 0 917.1 -- 21
2020-09-01 16:00:00 27.2 8 Norte 21 Noroeste 0 917.6 -- 23
2020-09-01 15:00:00 25.8 9 Noroeste 19 Norte 0 918.3 -- 23
2020-09-01 14:00:00 24.2 4 Sur 15 Noroeste 0 918.7 -- 25
2020-09-01 13:00:00 22.1 3 Norte 13 Sudeste 0 919.3 -- 30
2020-09-01 12:00:00 20.6 4 Nordeste 13 Nordeste 0 919.5 -- 35
2020-09-01 11:00:00 17.1 4 Norte 13 Sudeste 0 919.8 -- 50
2020-09-01 10:00:00 14.8 5 Este 12 Este 0 919.6 -- 57
2020-09-01 09:00:00 11.1 2 Este 8 Sudeste 0 919.6 -- 71
2020-09-01 08:00:00 9.7 3 Noroeste 9 Sur 0 919.8 -- 74
2020-09-01 07:00:00 10.5 2 Sur 8 Sur 0 919.5 -- 69
2020-09-01 06:00:00 11.3 4 Noroeste 13 Noroeste 0 919.8 -- 71
2020-09-01 05:00:00 11.1 7 Sudeste 10 Sudeste 0 920 -- 67
2020-09-01 04:00:00 11.4 6 Sur 10 Sur 0 920.2 -- 63
2020-09-01 03:00:00 11.3 5 Sudeste 15 Sudeste 0 920.4 -- 63
2020-09-01 02:00:00 11.7 2 Noroeste 9 Sudeste 0 921 -- 64
2020-09-01 01:00:00 11.4 4 Sur 6 Sudoeste 0 920.9 -- 63
2020-09-01 00:00:00 13.1 3 Sur 7 Sudoeste 0 920.9 -- 56
2020-08-31 23:00:00 13.8 3 Sur 6 Noroeste 0 921.2 -- 53
2020-08-31 22:00:00 15.2 4 Noroeste 10 Sudoeste 0 920.8 -- 47
2020-08-31 21:00:00 17.8 5 Sur 9 Sudoeste 0 920.6 -- 43
2020-08-31 20:00:00 21.8 6 Sudoeste 14 Sur 0 920.6 -- 27
2020-08-31 19:00:00 22.3 8 Sur 17 Sur 0 920.8 -- 22
2020-08-31 18:00:00 24.5 8 Oeste 25 Oeste 0 921.2 -- 20
2020-08-31 17:00:00 23.1 10 Sudoeste 23 Sudoeste 0 921.7 -- 22
2020-08-31 16:00:00 22.6 7 Sudoeste 37 Sudoeste 0 922.3 -- 24
2020-08-31 15:00:00 21.6 8 Oeste 23 Sudeste 0 922.7 -- 29
2020-08-31 14:00:00 20.5 5 Este 14 Sur 0 923.3 -- 33
2020-08-31 13:00:00 17.7 6 Noroeste 17 Noroeste 0 924.2 -- 46
2020-08-31 12:00:00 14.8 3 Oeste 11 Norte 0 924.5 -- 52
2020-08-31 11:00:00 12.5 3 Este 11 Norte 0 924.4 -- 61
2020-08-31 10:00:00 11.1 3 Este 7 Este 0 924.4 -- 67
2020-08-31 09:00:00 6.4 0 Calma 6 Sur 0 924.1 -- 84
2020-08-31 08:00:00 1.9 5 Sur 7 Sur 0 924 -- 90
2020-08-31 07:00:00 2.1 2 Sur 5 Sudoeste 0 924 -- 88
2020-08-31 06:00:00 3.8 0 Calma 7 Sudeste 0 923.6 -- 87
2020-08-31 05:00:00 3.7 4 Sudoeste 7 Sudoeste 0 923.8 -- 88
2020-08-31 04:00:00 3.5 3 Sudoeste 6 Sudoeste 0 924.1 -- 85
2020-08-31 03:00:00 4.9 3 Sudoeste 5 Este 0 924.3 -- 78
2020-08-31 02:00:00 6.2 2 Noroeste 8 Norte 0 924.4 -- 71
2020-08-31 01:00:00 6.2 0 Calma 16 Este 0 923.9 -- 70
2020-08-31 00:00:00 7.3 3 Sur 7 Noroeste 0 923 -- 66
2020-08-30 23:00:00 10.7 0 Calma 8 Sudoeste 0 922.4 -- 50
2020-08-30 22:00:00 13.2 4 Sur 8 Sudoeste 0 921.7 -- 40
2020-08-30 21:00:00 16.3 2 Sur 17 Nordeste 0 921.1 -- 35
2020-08-30 20:00:00 19.8 5 Nordeste 17 Este 0 920.6 -- 26
2020-08-30 19:00:00 20.4 9 Este 24 Este 0 920.4 -- 24
2020-08-30 18:00:00 21.4 7 Norte 21 Nordeste 0 920.3 -- 23
2020-08-30 17:00:00 21.3 9 Este 23 Este 0 920.3 -- 23
2020-08-30 16:00:00 21.1 6 Norte 18 Norte 0 920.6 -- 23
2020-08-30 15:00:00 19.4 7 Este 20 Norte 0 920.9 -- 28
2020-08-30 14:00:00 19.3 6 Este 20 Sudeste 0 921.1 -- 31
2020-08-30 13:00:00 17 9 Norte 28 Norte 0 921.3 -- 39
2020-08-30 12:00:00 17 8 Nordeste 20 Nordeste 0 921.2 -- 41
2020-08-30 11:00:00 13.1 2 Oeste 6 Noroeste 0 921 -- 53
2020-08-30 10:00:00 7.6 4 Sudeste 7 Sudeste 0 920.7 -- 85
2020-08-30 09:00:00 3.5 4 Este 9 Norte 0 920.5 -- 89
2020-08-30 08:00:00 2.3 3 Sur 6 Nordeste 0 920 -- 89
2020-08-30 07:00:00 2.3 5 Sur 7 Sudeste 0 919.7 -- 87
2020-08-30 06:00:00 3.6 0 Calma 6 Sudeste 0 919.4 -- 86
2020-08-30 05:00:00 5 3 Sur 8 Norte 0 919.5 -- 81
2020-08-30 04:00:00 7.3 3 Noroeste 10 Sudeste 0 919.4 -- 75
2020-08-30 03:00:00 8.9 6 Este 16 Este 0 919.4 -- 67
2020-08-30 02:00:00 9.1 5 Este 16 Sudeste 0 919.5 -- 67
2020-08-30 01:00:00 10.1 9 Este 17 Este 0 919.3 -- 64
2020-08-30 00:00:00 10.4 5 Este 15 Este 0 918.9 -- 63
2020-08-29 23:00:00 11.4 8 Este 21 Este 0 918.6 -- 60
2020-08-29 22:00:00 12.7 5 Nordeste 26 Nordeste 0 918.1 -- 54
2020-08-29 21:00:00 14.9 9 Nordeste 33 Nordeste 0 917.2 -- 47
2020-08-29 20:00:00 17.2 15 Nordeste 35 Norte 0 916.6 -- 39
2020-08-29 19:00:00 17.5 13 Norte 39 Norte 0 916.4 -- 41
2020-08-29 18:00:00 20 18 Norte 43 Norte 0 916.1 -- 34
2020-08-29 17:00:00 20.6 16 Norte 34 Noroeste 0 915.8 -- 32
2020-08-29 16:00:00 20.4 19 Norte 35 Norte 0 916 -- 33
2020-08-29 15:00:00 19 5 Norte 29 Norte 0 916.3 -- 34
2020-08-29 14:00:00 19.2 14 Norte 32 Norte 0 916.1 -- 35
2020-08-29 13:00:00 20.1 18 Norte 38 Norte 0 916.1 -- 35
2020-08-29 12:00:00 18.9 17 Norte 37 Norte 0 916.1 -- 39
2020-08-29 11:00:00 16.3 14 Norte 33 Norte 0 916 -- 45
2020-08-29 10:00:00 14 4 Este 12 Sudeste 0 915.7 -- 58
2020-08-29 09:00:00 8.7 4 Sudeste 8 Sudeste 0 915.5 -- 76
2020-08-29 08:00:00 5.7 0 Calma 10 Sur 0 915.1 -- 86
2020-08-29 07:00:00 5.2 5 Sudoeste 8 Sur 0 915.1 -- 86
2020-08-29 06:00:00 5.5 3 Sur 10 Nordeste 0 914.7 -- 81
2020-08-29 05:00:00 7.1 4 Norte 13 Sur 0 915 -- 71
2020-08-29 04:00:00 6.8 6 Sur 15 Sudoeste 0 915.2 -- 75
2020-08-29 03:00:00 7.1 7 Sudoeste 12 Sudoeste 0 915.5 -- 75
2020-08-29 02:00:00 7.7 5 Sur 10 Sudoeste 0 915.9 -- 71
2020-08-29 01:00:00 9.6 8 Sur 14 Sur 0 916 -- 65
2020-08-29 00:00:00 11.3 5 Sudoeste 15 Oeste 0 915.8 -- 59
2020-08-28 23:00:00 13.1 7 Noroeste 23 Oeste 0 915.8 -- 55
2020-08-28 22:00:00 14.7 11 Noroeste 34 Noroeste 0 915.6 -- 51
2020-08-28 21:00:00 16.9 14 Noroeste 42 Oeste 0 914.9 -- 43
2020-08-28 20:00:00 18.4 16 Noroeste 38 Noroeste 0 914.7 -- 36
2020-08-28 19:00:00 21.2 19 Noroeste 42 Noroeste 0 914.5 -- 30
2020-08-28 18:00:00 23.4 19 Noroeste 37 Noroeste 0 914.1 -- 29
2020-08-28 17:00:00 25 11 Sur 33 Sudoeste 0 914 -- 25
2020-08-28 16:00:00 24.8 13 Sudoeste 34 Sur 0 914.5 -- 24
2020-08-28 15:00:00 25.2 8 Oeste 24 Sudoeste 0 915.1 -- 25
2020-08-28 14:00:00 25.6 9 Norte 19 Noroeste 0 915.7 -- 22
2020-08-28 13:00:00 24.5 8 Norte 19 Oeste 0 916.5 -- 25
2020-08-28 12:00:00 22.3 9 Oeste 32 Sudoeste 0 917 -- 30
2020-08-28 11:00:00 20.6 6 Noroeste 18 Oeste 0 917.1 -- 37
2020-08-28 10:00:00 18.4 5 Oeste 15 Oeste 0 917.4 -- 51
2020-08-28 09:00:00 15.3 3 Este 8 Sudeste 0 917.5 -- 74
2020-08-28 08:00:00 13.6 6 Sur 10 Sudeste 0 917.8 -- 84
2020-08-28 07:00:00 14.3 3 Sudoeste 9 Sudoeste 0 917.6 -- 79
2020-08-28 06:00:00 15.7 5 Sur 12 Sur 0 918 -- 75
2020-08-28 05:00:00 15.8 8 Sur 12 Sur 0 918.4 -- 71
2020-08-28 04:00:00 16.5 7 Sur 14 Sudeste 0 918.7 -- 66
2020-08-28 03:00:00 17.2 2 Sur 11 Sudoeste 0 919.4 -- 64
2020-08-28 02:00:00 18 3 Sur 15 Sudeste 0 919.8 -- 60
2020-08-28 01:00:00 17.2 12 Sudeste 18 Oeste 0 920.2 -- 56
2020-08-28 00:00:00 18.8 3 Sur 23 Oeste 0 920.4 -- 52
2020-08-27 23:00:00 22.2 13 Oeste 26 Noroeste 0 920.7 -- 38
2020-08-27 22:00:00 23.3 11 Oeste 23 Oeste 0 920.8 -- 45
2020-08-27 21:00:00 24.6 10 Oeste 26 Oeste 0 920.7 -- 46
2020-08-27 20:00:00 26.4 15 Oeste 31 Oeste 0 920.7 -- 38
2020-08-27 19:00:00 30 19 Oeste 31 Oeste 0 920.7 -- 27
2020-08-27 18:00:00 31.6 13 Noroeste 27 Oeste 0 920.9 -- 21
2020-08-27 17:00:00 31.9 12 Oeste 28 Oeste 0 921.3 -- 26
2020-08-27 16:00:00 31.2 10 Oeste 24 Sudoeste 0 921.9 -- 24
2020-08-27 15:00:00 30.5 7 Sudoeste 20 Sur 0 922.5 -- 26
2020-08-27 14:00:00 29.3 10 Sur 21 Sudeste 0 923.2 -- 27
2020-08-27 13:00:00 28.3 9 Sudeste 23 Sur 0 923.6 -- 40
2020-08-27 12:00:00 26.3 5 Noroeste 12 Noroeste 0 924.4 -- 48
2020-08-27 11:00:00 23.9 3 Nordeste 11 Norte 0 924.2 -- 56
2020-08-27 10:00:00 19.7 5 Sur 16 Sur 0 924.2 -- 67
2020-08-27 09:00:00 15.8 6 Noroeste 14 Noroeste 0 924.7 -- 85
2020-08-27 08:00:00 11.9 0 Calma 6 Sudeste 0 924.2 -- 88
2020-08-27 07:00:00 12.8 0 Calma 5 Noroeste 0 923.9 -- 85
2020-08-27 06:00:00 14 0 Calma 4 Oeste 0 923.8 -- 84
2020-08-27 05:00:00 14.5 2 Sur 5 Sudeste 0 924 -- 86
2020-08-27 04:00:00 16.1 3 Sudeste 8 Sur 0 924 -- 76
2020-08-27 03:00:00 18.4 3 Sur 10 Sudoeste 0 924.1 -- 67
2020-08-27 02:00:00 18.8 4 Sur 10 Sur 0 924.5 -- 66
2020-08-27 01:00:00 18.6 5 Sudeste 12 Sudeste 0 924.6 -- 68
2020-08-27 00:00:00 20.2 7 Sur 11 Sur 0 924.6 -- 63
2020-08-26 23:00:00 21.7 5 Sur 10 Sudoeste 0 924.7 -- 59
2020-08-26 22:00:00 25.4 9 Oeste 20 Oeste 0 924 -- 46
2020-08-26 21:00:00 27.1 10 Oeste 23 Oeste 0 923.4 -- 37
2020-08-26 20:00:00 30.6 10 Sudoeste 23 Sudoeste 0 923.1 -- 29
2020-08-26 19:00:00 31.2 15 Sudoeste 29 Sudoeste 0 923.3 -- 29
2020-08-26 18:00:00 31.8 12 Oeste 28 Sudoeste 0 923.4 -- 26
2020-08-26 17:00:00 31.7 10 Oeste 28 Sudoeste 0 923.5 -- 27
2020-08-26 16:00:00 31.3 9 Sudoeste 23 Sudoeste 0 923.9 -- 22
2020-08-26 15:00:00 30.6 9 Oeste 23 Sudoeste 0 924 -- 24
2020-08-26 14:00:00 29.5 6 Sudoeste 21 Sur 0 924.4 -- 24
2020-08-26 13:00:00 28.4 5 Norte 13 Norte 0 924.8 -- 34
2020-08-26 12:00:00 25.5 5 Nordeste 13 Nordeste 0 924.9 -- 43
2020-08-26 11:00:00 22.4 3 Sudeste 9 Norte 0 924.8 -- 52
2020-08-26 10:00:00 18.1 5 Sudeste 9 Sudeste 0 924.6 -- 64
2020-08-26 09:00:00 13.4 0 Calma 6 Sudeste 0 924.5 -- 82
2020-08-26 08:00:00 10.5 0 Calma 8 Sudeste 0 924 -- 88
2020-08-26 07:00:00 11.6 0 Calma 7 Sudeste 0 923.6 -- 86
2020-08-26 06:00:00 11 6 Sur 9 Sudeste 0 923.6 -- 87
2020-08-26 05:00:00 12.3 3 Norte 8 Noroeste 0 923.5 -- 83
2020-08-26 04:00:00 13.4 4 Noroeste 8 Este 0 923.4 -- 81
2020-08-26 03:00:00 13.9 3 Sudeste 10 Sudoeste 0 923.4 -- 75
2020-08-26 02:00:00 15.2 6 Sudeste 11 Sudoeste 0 923.2 -- 70
2020-08-26 01:00:00 17.9 5 Sur 10 Sudoeste 0 922.9 -- 59
2020-08-26 00:00:00 19.2 4 Sur 10 Sudeste 0 922.7 -- 55
2020-08-25 23:00:00 20.8 5 Sur 18 Noroeste 0 922.7 -- 50
2020-08-25 22:00:00 23.9 9 Oeste 24 Oeste 0 921.9 -- 40
2020-08-25 21:00:00 26.2 11 Oeste 21 Oeste 0 921.1 -- 36
2020-08-25 20:00:00 28.4 10 Sudoeste 27 Sudoeste 0 920.6 -- 28
2020-08-25 19:00:00 29.3 14 Sudoeste 30 Sudoeste 0 920.6 -- 27
2020-08-25 18:00:00 30.9 14 Sudoeste 28 Oeste 0 920.3 -- 23
2020-08-25 17:00:00 31.8 10 Oeste 30 Oeste 0 920.4 -- 19
2020-08-25 16:00:00 31.2 12 Sudoeste 32 Sudoeste 0 920.5 -- 18
2020-08-25 15:00:00 30.3 13 Sudoeste 27 Sur 0 920.9 -- 19
2020-08-25 14:00:00 29.4 11 Sudoeste 23 Sudoeste 0 921 -- 16
2020-08-25 13:00:00 28.3 4 Sudoeste 14 Norte 0 921.3 -- 28
2020-08-25 12:00:00 25.4 3 Este 9 Sur 0 921.4 -- 32
2020-08-25 11:00:00 21.2 2 Sudoeste 7 Sudeste 0 921.3 -- 50
2020-08-25 10:00:00 17 2 Noroeste 6 Norte 0 921.1 -- 63
2020-08-25 09:00:00 12.7 2 Nordeste 5 Sur 0 920.7 -- 82
2020-08-25 08:00:00 9.1 0 Calma 4 Sudeste 0 920.2 -- 87
2020-08-25 07:00:00 9.9 2 Sudeste 5 Sur 0 919.9 -- 86
2020-08-25 06:00:00 9.8 4 Sur 6 Sudeste 0 920.1 -- 86
2020-08-25 05:00:00 10.8 3 Sur 5 Sur 0 920.1 -- 84
2020-08-25 04:00:00 11.1 3 Sur 5 Sudeste 0 920.3 -- 84
2020-08-25 03:00:00 12.3 3 Noroeste 6 Sur 0 920.3 -- 81
2020-08-25 02:00:00 12.7 5 Sur 9 Sur 0 920.5 -- 79
2020-08-25 01:00:00 14 2 Sudeste 13 Sur 0 920.5 -- 72
2020-08-25 00:00:00 15.4 3 Sur 7 Sur 0 920.6 -- 68
2020-08-24 23:00:00 17.6 0 Calma 6 Sur 0 920.7 -- 62
2020-08-24 22:00:00 19.4 4 Sur 12 Oeste 0 920.4 -- 56
2020-08-24 21:00:00 25.3 6 Oeste 12 Sudoeste 0 920.1 -- 37
2020-08-24 20:00:00 28.6 6 Sudoeste 14 Sudoeste 0 920.2 -- 27
2020-08-24 19:00:00 29.2 7 Sur 19 Sur 0 920.3 -- 22
2020-08-24 18:00:00 29.1 7 Sudoeste 17 Sur 0 920.8 -- 24
2020-08-24 17:00:00 28.7 7 Sudeste 16 Sur 0 921.3 -- 27
2020-08-24 16:00:00 28 6 Este 15 Nordeste 0 922 -- 32
2020-08-24 15:00:00 26.9 4 Nordeste 16 Sudeste 0 922.5 -- 37
2020-08-24 14:00:00 24.9 6 Nordeste 15 Norte 0 923.2 -- 41
2020-08-24 13:00:00 23.2 6 Norte 22 Este 0 923.8 -- 47
2020-08-24 12:00:00 20.9 7 Este 21 Nordeste 0 924.1 -- 54
2020-08-24 11:00:00 18.7 7 Nordeste 19 Este 0 924.3 -- 65
2020-08-24 10:00:00 16.1 9 Este 18 Sudeste 0 924.4 -- 75
2020-08-24 09:00:00 13 0 Calma 13 Sudeste 0 924.4 -- 84
2020-08-24 08:00:00 9.3 2 Sur 7 Sudeste 0 924.2 -- 87
2020-08-24 07:00:00 12.1 5 Noroeste 8 Noroeste 0 924.1 -- 86
2020-08-24 06:00:00 12 2 Sudoeste 6 Norte 0 923.9 -- 84
2020-08-24 05:00:00 13 2 Nordeste 8 Nordeste 0 924.6 -- 83
2020-08-24 04:00:00 13.7 0 Calma 6 Este 0 924.6 -- 79
2020-08-24 03:00:00 14.3 0 Calma 5 Nordeste 0 924.5 -- 78
2020-08-24 02:00:00 15 2 Nordeste 9 Sudeste 0 924.7 -- 73
2020-08-24 01:00:00 13.7 6 Sudeste 20 Este 0 924.9 -- 74
2020-08-24 00:00:00 14.3 4 Sur 8 Sudeste 0 924.5 -- 74
2020-08-23 23:00:00 16.9 2 Sudoeste 7 Sur 0 924.4 -- 63
2020-08-23 22:00:00 20.1 4 Sur 8 Sur 0 923.9 -- 51
2020-08-23 21:00:00 24.7 2 Sudoeste 13 Este 0 923.7 -- 40
2020-08-23 20:00:00 27.7 3 Nordeste 10 Sudeste 0 923.6 -- 29
2020-08-23 19:00:00 28.5 3 Norte 13 Norte 0 924 -- 28
2020-08-23 18:00:00 28.8 8 Norte 18 Norte 0 924.4 -- 27
2020-08-23 17:00:00 28.3 3 Noroeste 14 Norte 0 925 -- 27
2020-08-23 16:00:00 27.1 5 Este 15 Sur 0 925.6 -- 26
2020-08-23 15:00:00 26.2 6 Sudeste 18 Nordeste 0 926.3 -- 24
2020-08-23 14:00:00 24.6 5 Este 18 Este 0 926.6 -- 30
2020-08-23 13:00:00 22.9 6 Este 18 Sudeste 0 927.3 -- 43
2020-08-23 12:00:00 20.9 6 Nordeste 18 Este 0 927.7 -- 52
2020-08-23 11:00:00 18.6 7 Nordeste 19 Este 0 927.9 -- 62
2020-08-23 10:00:00 15.7 5 Este 11 Este 0 928.1 -- 74
2020-08-23 09:00:00 10.9 0 Calma 5 Sur 0 928.2 -- 91
2020-08-23 08:00:00 7.5 3 Sur 4 Sur 0 927.6 -- 90
2020-08-23 07:00:00 7.3 3 Sur 5 Sur 0 927.3 -- 87
2020-08-23 06:00:00 8.6 2 Nordeste 6 Sur 0 927.3 -- 84
2020-08-23 05:00:00 8.8 4 Sur 9 Noroeste 0 927.4 -- 84
2020-08-23 04:00:00 10.7 0 Calma 8 Sudoeste 0 927.3 -- 79
2020-08-23 03:00:00 9.8 4 Sur 10 Este 0 927.4 -- 81
2020-08-23 02:00:00 11.5 6 Sur 8 Sur 0 927.2 -- 74
2020-08-23 01:00:00 13.2 3 Sur 8 Sur 0 927.2 -- 65
2020-08-23 00:00:00 14 5 Sur 12 Sur 0 927.3 -- 63